sensor_id;sensor_type;location;lat;lon;timestamp;P1;durP1;ratioP1;P2;durP2;ratioP2
55372;SDS011;41249;47.838;16.490;2023-04-21T00:01:30;235.30;;;45.47;;
55372;SDS011;41249;47.838;16.490;2023-04-21T00:03:57;236.43;;;45.13;;
55372;SDS011;41249;47.838;16.490;2023-04-21T00:06:24;237.43;;;45.70;;
55372;SDS011;41249;47.838;16.490;2023-04-21T00:08:52;244.00;;;46.75;;
55372;SDS011;41249;47.838;16.490;2023-04-21T00:11:18;244.85;;;46.83;;
55372;SDS011;41249;47.838;16.490;2023-04-21T00:13:45;242.25;;;46.33;;
55372;SDS011;41249;47.838;16.490;2023-04-21T00:16:12;237.80;;;45.88;;
55372;SDS011;41249;47.838;16.490;2023-04-21T00:18:38;236.27;;;45.60;;
55372;SDS011;41249;47.838;16.490;2023-04-21T00:21:05;236.10;;;45.47;;
55372;SDS011;41249;47.838;16.490;2023-04-21T00:23:32;238.82;;;45.90;;
55372;SDS011;41249;47.838;16.490;2023-04-21T00:25:58;238.10;;;45.67;;
55372;SDS011;41249;47.838;16.490;2023-04-21T00:28:28;237.00;;;45.67;;
55372;SDS011;41249;47.838;16.490;2023-04-21T00:30:55;232.98;;;45.25;;
55372;SDS011;41249;47.838;16.490;2023-04-21T00:33:22;238.73;;;46.03;;
55372;SDS011;41249;47.838;16.490;2023-04-21T00:35:48;234.30;;;45.72;;
55372;SDS011;41249;47.838;16.490;2023-04-21T00:38:15;230.32;;;44.70;;
55372;SDS011;41249;47.838;16.490;2023-04-21T00:40:42;228.73;;;44.50;;
55372;SDS011;41249;47.838;16.490;2023-04-21T00:43:08;226.07;;;43.90;;
55372;SDS011;41249;47.838;16.490;2023-04-21T00:45:35;228.43;;;44.95;;
55372;SDS011;41249;47.838;16.490;2023-04-21T00:48:01;227.88;;;44.38;;
55372;SDS011;41249;47.838;16.490;2023-04-21T00:50:28;227.15;;;44.40;;
55372;SDS011;41249;47.838;16.490;2023-04-21T00:52:55;227.30;;;44.40;;
55372;SDS011;41249;47.838;16.490;2023-04-21T00:55:22;224.75;;;43.75;;
55372;SDS011;41249;47.838;16.490;2023-04-21T00:57:50;226.90;;;44.45;;
55372;SDS011;41249;47.838;16.490;2023-04-21T01:00:18;223.90;;;43.92;;
55372;SDS011;41249;47.838;16.490;2023-04-21T01:02:44;226.63;;;44.85;;
55372;SDS011;41249;47.838;16.490;2023-04-21T01:05:12;225.27;;;44.25;;
55372;SDS011;41249;47.838;16.490;2023-04-21T01:07:38;224.23;;;43.70;;
55372;SDS011;41249;47.838;16.490;2023-04-21T01:10:05;227.23;;;44.42;;
55372;SDS011;41249;47.838;16.490;2023-04-21T01:12:33;226.95;;;44.47;;
55372;SDS011;41249;47.838;16.490;2023-04-21T01:15:07;227.20;;;44.20;;
55372;SDS011;41249;47.838;16.490;2023-04-21T01:17:34;227.52;;;44.50;;
55372;SDS011;41249;47.838;16.490;2023-04-21T01:20:04;228.45;;;44.03;;
55372;SDS011;41249;47.838;16.490;2023-04-21T01:22:38;228.48;;;44.42;;
55372;SDS011;41249;47.838;16.490;2023-04-21T01:25:07;227.57;;;44.35;;
55372;SDS011;41249;47.838;16.490;2023-04-21T01:27:34;223.25;;;44.20;;
55372;SDS011;41249;47.838;16.490;2023-04-21T01:30:01;226.10;;;44.38;;
55372;SDS011;41249;47.838;16.490;2023-04-21T01:32:28;224.55;;;44.08;;
55372;SDS011;41249;47.838;16.490;2023-04-21T01:34:56;223.38;;;43.90;;
55372;SDS011;41249;47.838;16.490;2023-04-21T01:37:25;220.63;;;43.08;;
55372;SDS011;41249;47.838;16.490;2023-04-21T01:39:55;224.43;;;43.85;;
55372;SDS011;41249;47.838;16.490;2023-04-21T01:42:25;223.32;;;44.13;;
55372;SDS011;41249;47.838;16.490;2023-04-21T01:44:53;223.68;;;44.25;;
55372;SDS011;41249;47.838;16.490;2023-04-21T01:47:21;223.70;;;44.25;;
55372;SDS011;41249;47.838;16.490;2023-04-21T01:49:49;224.25;;;44.25;;
55372;SDS011;41249;47.838;16.490;2023-04-21T01:52:15;220.23;;;43.67;;
55372;SDS011;41249;47.838;16.490;2023-04-21T01:54:42;219.23;;;43.70;;
55372;SDS011;41249;47.838;16.490;2023-04-21T01:57:09;218.73;;;43.97;;
55372;SDS011;41249;47.838;16.490;2023-04-21T01:59:36;217.32;;;43.92;;
55372;SDS011;41249;47.838;16.490;2023-04-21T02:02:03;218.65;;;43.78;;
55372;SDS011;41249;47.838;16.490;2023-04-21T02:04:30;219.27;;;43.72;;
55372;SDS011;41249;47.838;16.490;2023-04-21T02:06:56;221.00;;;44.33;;
55372;SDS011;41249;47.838;16.490;2023-04-21T02:09:23;219.73;;;43.97;;
55372;SDS011;41249;47.838;16.490;2023-04-21T02:11:50;218.60;;;44.17;;
55372;SDS011;41249;47.838;16.490;2023-04-21T02:14:16;216.40;;;43.85;;
55372;SDS011;41249;47.838;16.490;2023-04-21T02:16:43;219.85;;;44.10;;
55372;SDS011;41249;47.838;16.490;2023-04-21T02:19:10;218.77;;;43.90;;
55372;SDS011;41249;47.838;16.490;2023-04-21T02:21:37;220.60;;;44.60;;
55372;SDS011;41249;47.838;16.490;2023-04-21T02:24:03;217.57;;;44.25;;
55372;SDS011;41249;47.838;16.490;2023-04-21T02:26:30;217.35;;;44.13;;
55372;SDS011;41249;47.838;16.490;2023-04-21T02:28:57;215.75;;;44.05;;
55372;SDS011;41249;47.838;16.490;2023-04-21T02:31:24;215.55;;;44.33;;
55372;SDS011;41249;47.838;16.490;2023-04-21T02:33:50;215.75;;;44.13;;
55372;SDS011;41249;47.838;16.490;2023-04-21T02:36:17;213.82;;;44.15;;
55372;SDS011;41249;47.838;16.490;2023-04-21T02:38:44;212.38;;;44.25;;
55372;SDS011;41249;47.838;16.490;2023-04-21T02:41:10;213.57;;;44.15;;
55372;SDS011;41249;47.838;16.490;2023-04-21T02:43:37;212.82;;;44.40;;
55372;SDS011;41249;47.838;16.490;2023-04-21T02:46:04;209.48;;;43.38;;
55372;SDS011;41249;47.838;16.490;2023-04-21T02:48:34;211.02;;;44.25;;
55372;SDS011;41249;47.838;16.490;2023-04-21T02:51:01;210.60;;;43.97;;
55372;SDS011;41249;47.838;16.490;2023-04-21T02:53:29;212.95;;;44.42;;
55372;SDS011;41249;47.838;16.490;2023-04-21T02:55:56;213.90;;;44.22;;
55372;SDS011;41249;47.838;16.490;2023-04-21T02:58:24;214.55;;;44.35;;
55372;SDS011;41249;47.838;16.490;2023-04-21T03:00:50;213.43;;;44.00;;
55372;SDS011;41249;47.838;16.490;2023-04-21T03:03:17;213.70;;;44.33;;
55372;SDS011;41249;47.838;16.490;2023-04-21T03:05:44;213.27;;;43.95;;
55372;SDS011;41249;47.838;16.490;2023-04-21T03:08:11;214.85;;;44.95;;
55372;SDS011;41249;47.838;16.490;2023-04-21T03:10:38;212.90;;;43.92;;
55372;SDS011;41249;47.838;16.490;2023-04-21T03:13:05;214.63;;;45.03;;
55372;SDS011;41249;47.838;16.490;2023-04-21T03:15:31;214.57;;;44.13;;
55372;SDS011;41249;47.838;16.490;2023-04-21T03:17:58;212.65;;;44.13;;
55372;SDS011;41249;47.838;16.490;2023-04-21T03:20:25;212.68;;;44.00;;
55372;SDS011;41249;47.838;16.490;2023-04-21T03:22:54;213.95;;;44.05;;
55372;SDS011;41249;47.838;16.490;2023-04-21T03:25:21;213.77;;;44.33;;
55372;SDS011;41249;47.838;16.490;2023-04-21T03:27:48;213.00;;;44.05;;
55372;SDS011;41249;47.838;16.490;2023-04-21T03:30:14;214.23;;;44.42;;
55372;SDS011;41249;47.838;16.490;2023-04-21T03:32:41;213.63;;;44.13;;
55372;SDS011;41249;47.838;16.490;2023-04-21T03:35:08;214.40;;;44.38;;
55372;SDS011;41249;47.838;16.490;2023-04-21T03:37:34;214.10;;;44.33;;
55372;SDS011;41249;47.838;16.490;2023-04-21T03:40:01;214.35;;;44.05;;
55372;SDS011;41249;47.838;16.490;2023-04-21T03:42:30;214.32;;;43.90;;
55372;SDS011;41249;47.838;16.490;2023-04-21T03:45:03;213.05;;;43.97;;
55372;SDS011;41249;47.838;16.490;2023-04-21T03:47:32;211.10;;;44.00;;
55372;SDS011;41249;47.838;16.490;2023-04-21T03:49:58;209.43;;;44.13;;
55372;SDS011;41249;47.838;16.490;2023-04-21T03:52:25;210.00;;;43.90;;
55372;SDS011;41249;47.838;16.490;2023-04-21T03:54:52;208.77;;;44.05;;
55372;SDS011;41249;47.838;16.490;2023-04-21T03:57:18;208.05;;;43.58;;
55372;SDS011;41249;47.838;16.490;2023-04-21T03:59:45;208.45;;;43.55;;
55372;SDS011;41249;47.838;16.490;2023-04-21T04:02:12;209.35;;;44.38;;
55372;SDS011;41249;47.838;16.490;2023-04-21T04:04:38;207.82;;;43.80;;
55372;SDS011;41249;47.838;16.490;2023-04-21T04:07:05;210.45;;;45.05;;
55372;SDS011;41249;47.838;16.490;2023-04-21T04:09:34;209.43;;;44.83;;
55372;SDS011;41249;47.838;16.490;2023-04-21T04:12:01;210.27;;;44.53;;
55372;SDS011;41249;47.838;16.490;2023-04-21T04:14:28;210.50;;;44.25;;
55372;SDS011;41249;47.838;16.490;2023-04-21T04:16:55;211.45;;;44.38;;
55372;SDS011;41249;47.838;16.490;2023-04-21T04:19:29;208.00;;;44.33;;
55372;SDS011;41249;47.838;16.490;2023-04-21T04:21:58;211.50;;;44.53;;
55372;SDS011;41249;47.838;16.490;2023-04-21T04:24:26;213.95;;;44.00;;
55372;SDS011;41249;47.838;16.490;2023-04-21T04:26:53;210.40;;;43.45;;
55372;SDS011;41249;47.838;16.490;2023-04-21T04:29:20;213.32;;;44.03;;
55372;SDS011;41249;47.838;16.490;2023-04-21T04:31:48;213.55;;;44.53;;
55372;SDS011;41249;47.838;16.490;2023-04-21T04:34:16;212.43;;;44.42;;
55372;SDS011;41249;47.838;16.490;2023-04-21T04:36:43;211.10;;;44.05;;
55372;SDS011;41249;47.838;16.490;2023-04-21T04:39:10;211.35;;;43.72;;
55372;SDS011;41249;47.838;16.490;2023-04-21T04:41:37;210.32;;;44.13;;
55372;SDS011;41249;47.838;16.490;2023-04-21T04:44:04;211.63;;;45.05;;
55372;SDS011;41249;47.838;16.490;2023-04-21T04:46:31;208.98;;;44.28;;
55372;SDS011;41249;47.838;16.490;2023-04-21T04:49:01;208.20;;;44.03;;
55372;SDS011;41249;47.838;16.490;2023-04-21T04:51:27;213.98;;;44.10;;
55372;SDS011;41249;47.838;16.490;2023-04-21T04:53:54;213.63;;;43.78;;
55372;SDS011;41249;47.838;16.490;2023-04-21T04:56:21;216.13;;;44.33;;
55372;SDS011;41249;47.838;16.490;2023-04-21T04:58:48;216.00;;;44.20;;
55372;SDS011;41249;47.838;16.490;2023-04-21T05:01:15;217.27;;;44.42;;
55372;SDS011;41249;47.838;16.490;2023-04-21T05:03:44;217.73;;;44.10;;
55372;SDS011;41249;47.838;16.490;2023-04-21T05:06:12;217.15;;;43.97;;
55372;SDS011;41249;47.838;16.490;2023-04-21T05:08:39;214.90;;;44.00;;
55372;SDS011;41249;47.838;16.490;2023-04-21T05:11:06;218.00;;;44.45;;
55372;SDS011;41249;47.838;16.490;2023-04-21T05:13:33;219.25;;;44.50;;
55372;SDS011;41249;47.838;16.490;2023-04-21T05:16:02;220.68;;;44.85;;
55372;SDS011;41249;47.838;16.490;2023-04-21T05:18:29;220.57;;;44.70;;
55372;SDS011;41249;47.838;16.490;2023-04-21T05:20:56;217.38;;;44.45;;
55372;SDS011;41249;47.838;16.490;2023-04-21T05:23:23;218.30;;;45.05;;
55372;SDS011;41249;47.838;16.490;2023-04-21T05:25:49;214.38;;;44.65;;
55372;SDS011;41249;47.838;16.490;2023-04-21T05:28:16;197.88;;;42.05;;
55372;SDS011;41249;47.838;16.490;2023-04-21T05:30:42;194.80;;;41.85;;
55372;SDS011;41249;47.838;16.490;2023-04-21T05:33:09;200.73;;;43.40;;
55372;SDS011;41249;47.838;16.490;2023-04-21T05:35:36;200.68;;;43.55;;
55372;SDS011;41249;47.838;16.490;2023-04-21T05:38:03;197.30;;;42.58;;
55372;SDS011;41249;47.838;16.490;2023-04-21T05:40:30;194.98;;;41.88;;
55372;SDS011;41249;47.838;16.490;2023-04-21T05:42:56;197.15;;;42.72;;
55372;SDS011;41249;47.838;16.490;2023-04-21T05:45:23;199.07;;;42.50;;
55372;SDS011;41249;47.838;16.490;2023-04-21T05:47:49;198.48;;;41.63;;
55372;SDS011;41249;47.838;16.490;2023-04-21T05:50:16;219.25;;;45.78;;
55372;SDS011;41249;47.838;16.490;2023-04-21T05:52:43;219.57;;;45.55;;
55372;SDS011;41249;47.838;16.490;2023-04-21T05:55:10;221.30;;;45.35;;
55372;SDS011;41249;47.838;16.490;2023-04-21T05:57:36;222.63;;;45.95;;
55372;SDS011;41249;47.838;16.490;2023-04-21T06:00:03;221.95;;;45.25;;
55372;SDS011;41249;47.838;16.490;2023-04-21T06:02:30;222.23;;;45.35;;
55372;SDS011;41249;47.838;16.490;2023-04-21T06:04:57;226.00;;;45.35;;
55372;SDS011;41249;47.838;16.490;2023-04-21T06:07:24;227.35;;;45.22;;
55372;SDS011;41249;47.838;16.490;2023-04-21T06:09:51;227.57;;;45.90;;
55372;SDS011;41249;47.838;16.490;2023-04-21T06:12:18;225.38;;;45.72;;
55372;SDS011;41249;47.838;16.490;2023-04-21T06:14:44;226.48;;;45.05;;
55372;SDS011;41249;47.838;16.490;2023-04-21T06:17:14;228.45;;;45.85;;
55372;SDS011;41249;47.838;16.490;2023-04-21T06:19:42;228.38;;;46.50;;
55372;SDS011;41249;47.838;16.490;2023-04-21T06:22:08;229.20;;;46.28;;
55372;SDS011;41249;47.838;16.490;2023-04-21T06:24:35;230.38;;;46.05;;
55372;SDS011;41249;47.838;16.490;2023-04-21T06:27:02;230.23;;;45.92;;
55372;SDS011;41249;47.838;16.490;2023-04-21T06:29:29;228.50;;;46.35;;
55372;SDS011;41249;47.838;16.490;2023-04-21T06:31:55;229.45;;;46.47;;
55372;SDS011;41249;47.838;16.490;2023-04-21T06:34:22;230.85;;;45.40;;
55372;SDS011;41249;47.838;16.490;2023-04-21T06:36:49;233.95;;;46.33;;
55372;SDS011;41249;47.838;16.490;2023-04-21T06:39:15;232.13;;;45.97;;
55372;SDS011;41249;47.838;16.490;2023-04-21T06:41:42;230.00;;;45.90;;
55372;SDS011;41249;47.838;16.490;2023-04-21T06:44:09;231.93;;;46.58;;
55372;SDS011;41249;47.838;16.490;2023-04-21T06:46:39;232.35;;;47.05;;
55372;SDS011;41249;47.838;16.490;2023-04-21T06:49:07;232.07;;;47.08;;
55372;SDS011;41249;47.838;16.490;2023-04-21T06:51:34;219.95;;;47.30;;
55372;SDS011;41249;47.838;16.490;2023-04-21T06:54:00;210.40;;;44.17;;
55372;SDS011;41249;47.838;16.490;2023-04-21T06:56:27;212.70;;;44.38;;
55372;SDS011;41249;47.838;16.490;2023-04-21T06:58:55;215.32;;;45.20;;
55372;SDS011;41249;47.838;16.490;2023-04-21T07:01:22;214.60;;;45.25;;
55372;SDS011;41249;47.838;16.490;2023-04-21T07:03:51;215.63;;;45.60;;
55372;SDS011;41249;47.838;16.490;2023-04-21T07:09:14;213.65;;;45.85;;
55372;SDS011;41249;47.838;16.490;2023-04-21T07:11:41;211.50;;;45.38;;
55372;SDS011;41249;47.838;16.490;2023-04-21T07:14:07;205.18;;;44.08;;
55372;SDS011;41249;47.838;16.490;2023-04-21T07:16:34;214.25;;;45.88;;
55372;SDS011;41249;47.838;16.490;2023-04-21T07:19:01;206.85;;;44.00;;
55372;SDS011;41249;47.838;16.490;2023-04-21T07:21:27;205.27;;;43.90;;
55372;SDS011;41249;47.838;16.490;2023-04-21T07:23:57;203.02;;;43.42;;
55372;SDS011;41249;47.838;16.490;2023-04-21T07:26:24;200.23;;;42.75;;
55372;SDS011;41249;47.838;16.490;2023-04-21T07:28:50;200.00;;;42.72;;
55372;SDS011;41249;47.838;16.490;2023-04-21T07:31:18;199.55;;;42.65;;
55372;SDS011;41249;47.838;16.490;2023-04-21T07:33:45;201.30;;;43.35;;
55372;SDS011;41249;47.838;16.490;2023-04-21T07:36:12;200.43;;;42.95;;
55372;SDS011;41249;47.838;16.490;2023-04-21T07:38:38;202.25;;;43.63;;
55372;SDS011;41249;47.838;16.490;2023-04-21T07:41:09;203.60;;;43.78;;
55372;SDS011;41249;47.838;16.490;2023-04-21T07:43:37;204.30;;;43.28;;
55372;SDS011;41249;47.838;16.490;2023-04-21T07:46:04;216.82;;;45.70;;
55372;SDS011;41249;47.838;16.490;2023-04-21T07:48:31;215.40;;;45.42;;
55372;SDS011;41249;47.838;16.490;2023-04-21T07:50:58;212.88;;;45.22;;
55372;SDS011;41249;47.838;16.490;2023-04-21T07:53:25;213.95;;;45.35;;
55372;SDS011;41249;47.838;16.490;2023-04-21T07:55:52;213.25;;;45.33;;
55372;SDS011;41249;47.838;16.490;2023-04-21T07:58:20;215.30;;;45.60;;
55372;SDS011;41249;47.838;16.490;2023-04-21T08:00:47;216.93;;;45.55;;
55372;SDS011;41249;47.838;16.490;2023-04-21T08:03:14;216.95;;;45.58;;
55372;SDS011;41249;47.838;16.490;2023-04-21T08:05:43;215.82;;;45.45;;
55372;SDS011;41249;47.838;16.490;2023-04-21T08:08:10;213.15;;;45.33;;
55372;SDS011;41249;47.838;16.490;2023-04-21T08:10:37;214.90;;;45.78;;
55372;SDS011;41249;47.838;16.490;2023-04-21T08:13:04;218.52;;;46.30;;
55372;SDS011;41249;47.838;16.490;2023-04-21T08:18:06;213.02;;;45.25;;
55372;SDS011;41249;47.838;16.490;2023-04-21T08:20:34;212.38;;;45.25;;
55372;SDS011;41249;47.838;16.490;2023-04-21T08:23:00;209.25;;;44.80;;
55372;SDS011;41249;47.838;16.490;2023-04-21T08:25:27;208.68;;;44.45;;
55372;SDS011;41249;47.838;16.490;2023-04-21T08:27:54;210.70;;;45.08;;
55372;SDS011;41249;47.838;16.490;2023-04-21T08:30:21;216.63;;;48.08;;
55372;SDS011;41249;47.838;16.490;2023-04-21T08:32:47;217.02;;;45.35;;
55372;SDS011;41249;47.838;16.490;2023-04-21T08:35:14;215.93;;;45.47;;
55372;SDS011;41249;47.838;16.490;2023-04-21T08:37:41;214.05;;;45.00;;
55372;SDS011;41249;47.838;16.490;2023-04-21T08:40:07;214.98;;;45.22;;
55372;SDS011;41249;47.838;16.490;2023-04-21T08:42:34;214.90;;;45.40;;
55372;SDS011;41249;47.838;16.490;2023-04-21T08:45:04;213.45;;;44.88;;
55372;SDS011;41249;47.838;16.490;2023-04-21T08:47:31;220.82;;;46.25;;
55372;SDS011;41249;47.838;16.490;2023-04-21T08:49:58;215.27;;;45.42;;
55372;SDS011;41249;47.838;16.490;2023-04-21T08:52:25;214.82;;;47.88;;
55372;SDS011;41249;47.838;16.490;2023-04-21T08:54:52;211.13;;;44.70;;
55372;SDS011;41249;47.838;16.490;2023-04-21T08:57:18;216.68;;;45.13;;
55372;SDS011;41249;47.838;16.490;2023-04-21T08:59:45;222.40;;;46.35;;
55372;SDS011;41249;47.838;16.490;2023-04-21T09:02:12;224.07;;;45.90;;
55372;SDS011;41249;47.838;16.490;2023-04-21T09:04:43;217.98;;;44.30;;
55372;SDS011;41249;47.838;16.490;2023-04-21T09:07:11;220.43;;;44.60;;
55372;SDS011;41249;47.838;16.490;2023-04-21T09:09:55;231.50;;;46.63;;
55372;SDS011;41249;47.838;16.490;2023-04-21T09:12:22;221.80;;;44.33;;
55372;SDS011;41249;47.838;16.490;2023-04-21T09:14:49;227.27;;;45.60;;
55372;SDS011;41249;47.838;16.490;2023-04-21T09:17:17;226.52;;;45.38;;
55372;SDS011;41249;47.838;16.490;2023-04-21T09:19:47;224.93;;;44.85;;
55372;SDS011;41249;47.838;16.490;2023-04-21T09:22:14;231.73;;;45.80;;
55372;SDS011;41249;47.838;16.490;2023-04-21T09:24:46;231.88;;;45.95;;
55372;SDS011;41249;47.838;16.490;2023-04-21T09:27:14;238.75;;;47.55;;
55372;SDS011;41249;47.838;16.490;2023-04-21T09:29:45;240.38;;;47.45;;
55372;SDS011;41249;47.838;16.490;2023-04-21T09:32:17;235.15;;;46.35;;
55372;SDS011;41249;47.838;16.490;2023-04-21T09:34:45;230.57;;;45.90;;
55372;SDS011;41249;47.838;16.490;2023-04-21T09:37:12;233.07;;;45.80;;
55372;SDS011;41249;47.838;16.490;2023-04-21T09:39:44;238.30;;;46.90;;
55372;SDS011;41249;47.838;16.490;2023-04-21T09:42:29;238.07;;;46.97;;
55372;SDS011;41249;47.838;16.490;2023-04-21T09:44:56;229.10;;;45.35;;
55372;SDS011;41249;47.838;16.490;2023-04-21T09:47:43;233.05;;;45.65;;
55372;SDS011;41249;47.838;16.490;2023-04-21T09:50:15;228.38;;;45.30;;
55372;SDS011;41249;47.838;16.490;2023-04-21T10:02:54;234.10;;;45.70;;
55372;SDS011;41249;47.838;16.490;2023-04-21T17:16:11;194.70;;;39.30;;
55372;SDS011;41249;47.838;16.490;2023-04-21T17:21:04;126.70;;;31.40;;
55372;SDS011;41249;47.838;16.490;2023-04-21T17:23:31;192.77;;;42.90;;
55372;SDS011;41249;47.838;16.490;2023-04-21T17:25:58;213.30;;;45.58;;
55372;SDS011;41249;47.838;16.490;2023-04-21T17:28:24;213.90;;;46.50;;
55372;SDS011;41249;47.838;16.490;2023-04-21T17:30:51;212.32;;;46.22;;
55372;SDS011;41249;47.838;16.490;2023-04-21T17:33:32;202.90;;;44.60;;
55372;SDS011;41249;47.838;16.490;2023-04-21T17:35:59;209.93;;;45.63;;
55372;SDS011;41249;47.838;16.490;2023-04-21T17:38:28;210.15;;;45.38;;
55372;SDS011;41249;47.838;16.490;2023-04-21T17:40:55;209.43;;;45.47;;
55372;SDS011;41249;47.838;16.490;2023-04-21T17:43:22;208.50;;;45.42;;
55372;SDS011;41249;47.838;16.490;2023-04-21T17:45:49;207.45;;;44.97;;
55372;SDS011;41249;47.838;16.490;2023-04-21T17:48:16;207.13;;;45.17;;
55372;SDS011;41249;47.838;16.490;2023-04-21T17:50:43;202.85;;;44.17;;
55372;SDS011;41249;47.838;16.490;2023-04-21T17:53:10;200.18;;;44.03;;
55372;SDS011;41249;47.838;16.490;2023-04-21T17:55:38;199.40;;;44.00;;
55372;SDS011;41249;47.838;16.490;2023-04-21T17:58:05;196.38;;;43.63;;
55372;SDS011;41249;47.838;16.490;2023-04-21T18:00:31;194.38;;;43.17;;
55372;SDS011;41249;47.838;16.490;2023-04-21T18:02:59;190.90;;;42.63;;
55372;SDS011;41249;47.838;16.490;2023-04-21T18:05:29;189.15;;;42.55;;
55372;SDS011;41249;47.838;16.490;2023-04-21T18:07:56;189.02;;;42.67;;
55372;SDS011;41249;47.838;16.490;2023-04-21T18:10:23;186.75;;;42.47;;
55372;SDS011;41249;47.838;16.490;2023-04-21T18:12:53;185.55;;;42.00;;
55372;SDS011;41249;47.838;16.490;2023-04-21T18:15:20;184.15;;;41.72;;
55372;SDS011;41249;47.838;16.490;2023-04-21T18:17:46;185.52;;;41.83;;
55372;SDS011;41249;47.838;16.490;2023-04-21T18:20:13;184.80;;;42.05;;
55372;SDS011;41249;47.838;16.490;2023-04-21T18:22:41;180.40;;;41.55;;
55372;SDS011;41249;47.838;16.490;2023-04-21T18:25:09;183.95;;;41.60;;
55372;SDS011;41249;47.838;16.490;2023-04-21T18:27:37;188.52;;;42.40;;
55372;SDS011;41249;47.838;16.490;2023-04-21T18:30:04;188.88;;;42.47;;
55372;SDS011;41249;47.838;16.490;2023-04-21T18:32:36;186.65;;;42.42;;
55372;SDS011;41249;47.838;16.490;2023-04-21T18:35:04;184.05;;;41.65;;
55372;SDS011;41249;47.838;16.490;2023-04-21T18:37:32;189.63;;;42.40;;
55372;SDS011;41249;47.838;16.490;2023-04-21T18:39:59;193.55;;;43.00;;
55372;SDS011;41249;47.838;16.490;2023-04-21T18:42:25;191.13;;;42.75;;
55372;SDS011;41249;47.838;16.490;2023-04-21T18:44:52;191.75;;;42.83;;
55372;SDS011;41249;47.838;16.490;2023-04-21T18:47:23;191.75;;;42.42;;
55372;SDS011;41249;47.838;16.490;2023-04-21T18:49:50;195.13;;;43.08;;
55372;SDS011;41249;47.838;16.490;2023-04-21T18:52:16;194.38;;;43.08;;
55372;SDS011;41249;47.838;16.490;2023-04-21T18:54:43;195.40;;;43.45;;
55372;SDS011;41249;47.838;16.490;2023-04-21T18:57:10;194.90;;;43.05;;
55372;SDS011;41249;47.838;16.490;2023-04-21T18:59:36;191.88;;;42.70;;
55372;SDS011;41249;47.838;16.490;2023-04-21T19:02:03;188.90;;;42.25;;
55372;SDS011;41249;47.838;16.490;2023-04-21T19:04:31;189.73;;;42.58;;
55372;SDS011;41249;47.838;16.490;2023-04-21T19:06:58;190.80;;;42.90;;
55372;SDS011;41249;47.838;16.490;2023-04-21T19:09:27;189.25;;;42.45;;
55372;SDS011;41249;47.838;16.490;2023-04-21T19:11:53;186.27;;;41.65;;
55372;SDS011;41249;47.838;16.490;2023-04-21T19:14:20;189.68;;;42.35;;
55372;SDS011;41249;47.838;16.490;2023-04-21T19:16:47;188.23;;;42.25;;
55372;SDS011;41249;47.838;16.490;2023-04-21T19:19:14;187.38;;;41.85;;
55372;SDS011;41249;47.838;16.490;2023-04-21T19:21:41;188.00;;;42.03;;
55372;SDS011;41249;47.838;16.490;2023-04-21T19:24:07;190.07;;;42.38;;
55372;SDS011;41249;47.838;16.490;2023-04-21T19:26:34;188.93;;;42.38;;
55372;SDS011;41249;47.838;16.490;2023-04-21T19:29:01;188.80;;;42.35;;
55372;SDS011;41249;47.838;16.490;2023-04-21T19:31:27;185.55;;;42.00;;
55372;SDS011;41249;47.838;16.490;2023-04-21T19:33:54;186.75;;;42.25;;
55372;SDS011;41249;47.838;16.490;2023-04-21T19:36:21;184.75;;;41.97;;
55372;SDS011;41249;47.838;16.490;2023-04-21T19:38:47;187.00;;;42.22;;
55372;SDS011;41249;47.838;16.490;2023-04-21T19:41:14;186.52;;;42.10;;
55372;SDS011;41249;47.838;16.490;2023-04-21T19:43:41;182.02;;;41.58;;
55372;SDS011;41249;47.838;16.490;2023-04-21T19:46:08;174.65;;;40.80;;
55372;SDS011;41249;47.838;16.490;2023-04-21T19:48:35;173.05;;;40.60;;
55372;SDS011;41249;47.838;16.490;2023-04-21T19:51:02;182.73;;;41.80;;
55372;SDS011;41249;47.838;16.490;2023-04-21T19:53:28;177.93;;;40.97;;
55372;SDS011;41249;47.838;16.490;2023-04-21T19:55:55;175.85;;;40.75;;
55372;SDS011;41249;47.838;16.490;2023-04-21T19:58:22;176.90;;;41.05;;
55372;SDS011;41249;47.838;16.490;2023-04-21T20:01:05;176.40;;;41.05;;
55372;SDS011;41249;47.838;16.490;2023-04-21T20:03:32;172.77;;;40.63;;
55372;SDS011;41249;47.838;16.490;2023-04-21T20:05:59;171.23;;;41.15;;
55372;SDS011;41249;47.838;16.490;2023-04-21T20:08:26;169.35;;;40.45;;
55372;SDS011;41249;47.838;16.490;2023-04-21T20:10:54;168.65;;;40.17;;
55372;SDS011;41249;47.838;16.490;2023-04-21T20:13:21;171.65;;;40.55;;
55372;SDS011;41249;47.838;16.490;2023-04-21T20:15:47;167.02;;;39.78;;
55372;SDS011;41249;47.838;16.490;2023-04-21T20:18:14;174.88;;;41.03;;
55372;SDS011;41249;47.838;16.490;2023-04-21T20:20:41;169.68;;;40.35;;
55372;SDS011;41249;47.838;16.490;2023-04-21T20:23:07;165.95;;;40.15;;
55372;SDS011;41249;47.838;16.490;2023-04-21T20:25:34;168.18;;;39.95;;
55372;SDS011;41249;47.838;16.490;2023-04-21T20:28:01;157.50;;;39.17;;
55372;SDS011;41249;47.838;16.490;2023-04-21T20:30:28;155.98;;;38.95;;
55372;SDS011;41249;47.838;16.490;2023-04-21T20:32:54;149.48;;;38.33;;
55372;SDS011;41249;47.838;16.490;2023-04-21T20:35:21;154.18;;;38.65;;
55372;SDS011;41249;47.838;16.490;2023-04-21T20:37:47;149.45;;;38.33;;
55372;SDS011;41249;47.838;16.490;2023-04-21T20:40:15;147.85;;;38.33;;
55372;SDS011;41249;47.838;16.490;2023-04-21T20:42:43;145.63;;;38.08;;
55372;SDS011;41249;47.838;16.490;2023-04-21T20:45:10;140.40;;;37.10;;
55372;SDS011;41249;47.838;16.490;2023-04-21T20:47:38;125.13;;;35.05;;
55372;SDS011;41249;47.838;16.490;2023-04-21T20:50:04;116.68;;;33.58;;
55372;SDS011;41249;47.838;16.490;2023-04-21T20:52:32;111.05;;;32.70;;
55372;SDS011;41249;47.838;16.490;2023-04-21T20:54:59;129.82;;;35.90;;
55372;SDS011;41249;47.838;16.490;2023-04-21T20:57:25;127.10;;;35.40;;
55372;SDS011;41249;47.838;16.490;2023-04-21T20:59:52;116.97;;;33.83;;
55372;SDS011;41249;47.838;16.490;2023-04-21T21:02:19;117.10;;;33.90;;
55372;SDS011;41249;47.838;16.490;2023-04-21T21:04:46;119.38;;;34.17;;
55372;SDS011;41249;47.838;16.490;2023-04-21T21:09:40;159.93;;;39.63;;
55372;SDS011;41249;47.838;16.490;2023-04-21T21:12:06;138.50;;;36.95;;
55372;SDS011;41249;47.838;16.490;2023-04-21T21:14:33;139.73;;;36.97;;
55372;SDS011;41249;47.838;16.490;2023-04-21T21:17:00;135.57;;;36.70;;
55372;SDS011;41249;47.838;16.490;2023-04-21T21:19:28;137.40;;;36.80;;
55372;SDS011;41249;47.838;16.490;2023-04-21T21:21:55;133.73;;;36.28;;
55372;SDS011;41249;47.838;16.490;2023-04-21T21:24:21;133.93;;;36.22;;
55372;SDS011;41249;47.838;16.490;2023-04-21T21:26:48;133.32;;;36.22;;
55372;SDS011;41249;47.838;16.490;2023-04-21T21:29:14;128.48;;;35.63;;